Time;durP1;ratioP1;P1;durP2;ratioP2;P2;SDS_P1;SDS_P2;PMS_P1;PMS_P2;Temp;Humidity;BMP_temperature;BMP_pressure;BME280_temperature;BME280_humidity;BME280_pressure;Samples;Min_cycle;Max_cycle;Signal;HPM_P1;HPM_P2
2023/06/05 00:00:06;;;;;;;6.73;6.37;;;17.80;44.50;;;;;;4906965;29;20449;-82
2023/06/05 00:02:36;;;;;;;6.87;6.57;;;17.80;58.50;;;;;;4904778;29;20450;-81
2023/06/05 00:05:08;;;;;;;6.20;6.00;;;17.70;44.70;;;;;;4907183;29;20481;-81
2023/06/05 00:07:38;;;;;;;6.20;6.00;;;17.70;44.80;;;;;;4907529;29;20964;-81
2023/06/05 00:10:08;;;;;;;6.50;6.20;;;17.60;44.60;;;;;;4907204;29;20812;-82
2023/06/05 00:12:37;;;;;;;6.93;6.53;;;17.70;45.50;;;;;;4907975;29;20461;-81
2023/06/05 00:15:06;;;;;;;6.50;6.20;;;17.70;45.10;;;;;;4907406;29;21014;-82
2023/06/05 00:17:36;;;;;;;6.27;6.07;;;17.70;45.20;;;;;;4906885;29;20801;-82
2023/06/05 00:20:09;;;;;;;6.37;6.17;;;17.70;46.70;;;;;;4906981;29;20948;-81
2023/06/05 00:22:38;;;;;;;6.60;6.20;;;17.60;47.50;;;;;;4907754;29;20477;-81
2023/06/05 00:25:08;;;;;;;7.07;6.57;;;17.50;45.50;;;;;;4907082;29;20512;-81
2023/06/05 00:27:36;;;;;;;7.30;6.80;;;17.40;45.30;;;;;;4908040;29;20452;-82
2023/06/05 00:30:05;;;;;;;6.73;6.43;;;17.40;45.90;;;;;;4907597;29;20541;-81
2023/06/05 00:32:33;;;;;;;7.10;6.70;;;17.40;46.00;;;;;;4907929;29;20461;-81
2023/06/05 00:35:03;;;;;;;7.00;6.57;;;17.30;45.50;;;;;;4904867;29;20482;-82
2023/06/05 00:37:31;;;;;;;7.20;6.80;;;17.30;45.80;;;;;;4898720;29;20576;-82
2023/06/05 00:39:59;;;;;;;7.33;6.73;;;17.20;44.40;;;;;;4906435;29;20890;-82
2023/06/05 00:42:27;;;;;;;6.57;6.27;;;17.20;44.80;;;;;;4905931;29;20480;-82
2023/06/05 00:44:56;;;;;;;6.63;6.43;;;17.20;45.70;;;;;;4906440;29;20831;-82
2023/06/05 00:47:24;;;;;;;6.70;6.30;;;17.20;45.90;;;;;;4907398;29;20456;-81
2023/06/05 00:49:53;;;;;;;6.30;6.07;;;17.20;46.30;;;;;;4906031;29;20468;-82
2023/06/05 00:52:22;;;;;;;6.63;6.27;;;17.30;48.90;;;;;;4906430;29;20853;-81
2023/06/05 00:54:51;;;;;;;7.17;6.77;;;17.20;48.80;;;;;;4907425;29;20473;-82
2023/06/05 00:57:19;;;;;;;6.90;6.67;;;17.20;48.50;;;;;;4906041;29;20463;-82
2023/06/05 00:59:49;;;;;;;6.50;6.13;;;17.20;48.50;;;;;;4905530;29;20468;-82
2023/06/05 01:02:17;;;;;;;6.73;6.30;;;17.10;48.60;;;;;;4905784;29;20981;-81
2023/06/05 01:04:46;;;;;;;7.10;6.80;;;17.10;48.40;;;;;;4904444;29;20481;-81
2023/06/05 01:07:16;;;;;;;8.10;7.40;;;17.10;49.30;;;;;;4906113;29;20465;-81
2023/06/05 01:09:45;;;;;;;6.63;6.13;;;17.00;47.70;;;;;;4906760;29;20460;-81
2023/06/05 01:12:21;;;;;;;6.43;6.10;;;16.90;46.60;;;;;;4907965;29;20758;-82
2023/06/05 01:14:50;;;;;;;6.03;5.83;;;16.90;62.40;;;;;;4906790;29;20487;-81
2023/06/05 01:17:19;;;;;;;5.80;5.60;;;16.90;48.90;;;;;;4905229;29;20561;-81
2023/06/05 01:19:49;;;;;;;6.67;6.27;;;16.90;49.40;;;;;;4905672;29;20475;-82
2023/06/05 01:22:18;;;;;;;6.80;6.50;;;17.00;51.60;;;;;;4907978;29;20464;-82
2023/06/05 01:24:48;;;;;;;6.77;6.37;;;17.00;51.40;;;;;;4907372;29;21098;-81
2023/06/05 01:27:26;;;;;;;6.97;6.57;;;16.90;52.30;;;;;;4907091;29;20464;-81
2023/06/05 01:30:07;;;;;;;6.37;6.17;;;16.80;50.20;;;;;;4907031;29;21888;-82
2023/06/05 01:32:41;;;;;;;6.70;6.50;;;16.80;50.90;;;;;;4906700;29;21002;-84
2023/06/05 01:35:16;;;;;;;6.47;6.17;;;16.80;51.00;;;;;;4905165;29;21078;-82
2023/06/05 01:37:48;;;;;;;6.43;6.23;;;16.70;51.70;;;;;;4907263;29;20600;-82
2023/06/05 01:40:21;;;;;;;6.43;6.23;;;16.60;51.80;;;;;;4906944;29;20462;-81
2023/06/05 01:42:51;;;;;;;6.67;6.47;;;16.60;52.00;;;;;;4906404;29;20531;-81
2023/06/05 01:45:19;;;;;;;6.87;6.57;;;16.60;53.00;;;;;;4904852;29;20548;-81
2023/06/05 01:47:49;;;;;;;7.53;7.13;;;16.60;54.00;;;;;;4906541;29;20471;-82
2023/06/05 01:50:19;;;;;;;7.43;7.13;;;16.60;55.00;;;;;;4906425;29;20906;-81
2023/06/05 01:52:49;;;;;;;7.33;7.03;;;16.60;56.20;;;;;;4906035;29;20465;-82
2023/06/05 01:55:23;;;;;;;7.60;7.00;;;16.60;57.50;;;;;;4914599;29;20483;-82
2023/06/05 01:57:52;;;;;;;7.20;6.93;;;16.50;56.90;;;;;;4909809;29;20463;-82
2023/06/05 02:00:20;;;;;;;7.27;7.07;;;16.50;57.10;;;;;;4909836;29;20816;-81
2023/06/05 02:02:50;;;;;;;7.80;7.47;;;16.50;55.90;;;;;;4909558;29;21035;-82
2023/06/05 02:05:20;;;;;;;7.07;6.87;;;16.50;57.00;;;;;;4911447;29;20490;-81
2023/06/05 02:07:53;;;;;;;7.43;7.13;;;16.50;59.00;;;;;;4910677;29;20464;-82
2023/06/05 02:10:23;;;;;;;6.83;6.53;;;16.50;57.90;;;;;;4911137;29;20467;-80
2023/06/05 02:12:52;;;;;;;7.07;6.67;;;16.40;59.80;;;;;;4908245;29;20970;-81
2023/06/05 02:15:20;;;;;;;7.90;7.40;;;16.40;59.70;;;;;;4909973;29;20490;-82
2023/06/05 02:17:52;;;;;;;8.03;7.63;;;16.40;61.50;;;;;;4909372;29;20470;-82
2023/06/05 02:20:25;;;;;;;7.17;6.97;;;16.40;62.40;;;;;;4909138;29;20486;-81
2023/06/05 02:22:54;;;;;;;7.83;7.40;;;16.40;62.00;;;;;;4909565;29;20572;-82
2023/06/05 02:25:25;;;;;;;7.33;7.07;;;16.30;60.50;;;;;;4910975;29;20545;-81
2023/06/05 02:27:54;;;;;;;8.13;7.63;;;16.20;60.00;;;;;;4908417;29;20488;-82
2023/06/05 02:30:23;;;;;;;7.23;6.93;;;16.20;60.70;;;;;;4909348;29;20482;-82
2023/06/05 02:32:56;;;;;;;8.00;7.60;;;16.20;62.60;;;;;;4911165;29;20542;-80
2023/06/05 02:35:25;;;;;;;7.57;7.27;;;16.10;82.60;;;;;;4912885;29;20481;-81
2023/06/05 02:37:53;;;;;;;7.10;6.80;;;16.10;65.60;;;;;;4903952;29;20523;-81
2023/06/05 02:40:23;;;;;;;7.70;7.40;;;16.10;66.20;;;;;;4912069;29;20586;-81
2023/06/05 02:42:51;;;;;;;7.20;6.90;;;16.00;65.80;;;;;;4909650;29;20474;-82
2023/06/05 02:45:19;;;;;;;7.83;7.43;;;16.00;67.00;;;;;;4912888;29;20485;-81
2023/06/05 02:47:48;;;;;;;7.30;6.93;;;16.00;66.10;;;;;;4912587;29;20459;-80
2023/06/05 02:50:17;;;;;;;7.30;7.00;;;16.00;67.10;;;;;;4911321;29;20599;-82
2023/06/05 02:52:45;;;;;;;7.80;7.50;;;16.00;69.20;;;;;;4912739;29;20463;-81
2023/06/05 02:55:13;;;;;;;7.77;7.47;;;16.00;69.80;;;;;;4912197;29;20479;-81
2023/06/05 02:57:42;;;;;;;7.63;7.17;;;16.00;69.50;;;;;;4910421;29;20469;-81
2023/06/05 03:00:15;;;;;;;7.50;7.30;;;15.90;68.10;;;;;;4925046;29;20872;-82
2023/06/05 03:02:48;;;;;;;8.43;8.13;;;15.90;68.20;;;;;;4912660;29;20504;-80
2023/06/05 03:05:24;;;;;;;8.47;8.03;;;15.80;68.70;;;;;;4910075;29;21260;-80
2023/06/05 03:07:55;;;;;;;8.10;7.80;;;15.80;72.50;;;;;;4912559;29;20473;-80
2023/06/05 03:10:24;;;;;;;8.13;7.73;;;15.80;72.50;;;;;;4912765;29;20450;-81
2023/06/05 03:12:53;;;;;;;8.07;7.77;;;15.80;73.70;;;;;;4912951;29;20458;-81
2023/06/05 03:15:21;;;;;;;8.23;7.93;;;15.80;74.30;;;;;;4910942;29;20483;-81
2023/06/05 03:17:49;;;;;;;8.23;7.93;;;15.80;74.40;;;;;;4908126;29;20468;-82
2023/06/05 03:20:19;;;;;;;9.30;8.90;;;15.70;74.20;;;;;;4910088;29;20522;-81
2023/06/05 03:22:47;;;;;;;8.13;7.73;;;15.60;84.30;;;;;;4908855;29;20466;-82
2023/06/05 03:25:15;;;;;;;8.30;8.10;;;15.60;76.50;;;;;;4908124;29;20894;-81
2023/06/05 03:27:43;;;;;;;8.83;8.23;;;15.60;73.40;;;;;;4906723;29;20554;-81
2023/06/05 03:30:16;;;;;;;8.30;7.90;;;15.60;77.80;;;;;;4907345;29;20457;-82
2023/06/05 03:32:44;;;;;;;8.60;8.30;;;15.60;76.70;;;;;;4908443;29;20552;-82
2023/06/05 03:35:12;;;;;;;8.73;8.43;;;15.60;92.30;;;;;;4908386;29;20508;-81
2023/06/05 03:37:41;;;;;;;8.23;7.93;;;15.50;77.10;;;;;;4908070;29;20561;-81
2023/06/05 03:40:10;;;;;;;9.50;8.70;;;15.50;77.30;;;;;;4908676;29;20486;-81
2023/06/05 03:42:38;;;;;;;8.37;8.07;;;15.50;79.30;;;;;;4907269;29;20466;-81
2023/06/05 03:45:08;;;;;;;8.87;8.47;;;15.50;80.40;;;;;;4908218;29;20863;-82
2023/06/05 03:47:37;;;;;;;8.67;8.37;;;15.50;81.60;;;;;;4909100;29;20573;-80
2023/06/05 03:50:06;;;;;;;8.37;8.07;;;15.50;82.60;;;;;;4908433;29;20457;-81
2023/06/05 03:52:37;;;;;;;8.27;7.97;;;15.50;83.10;;;;;;4908900;29;21083;-81
2023/06/05 03:55:07;;;;;;;8.27;7.93;;;15.50;95.90;;;;;;4909235;29;20735;-81
2023/06/05 03:57:37;;;;;;;8.50;8.10;;;15.50;84.00;;;;;;4907909;29;20457;-80
2023/06/05 04:00:09;;;;;;;9.50;9.00;;;15.50;83.00;;;;;;4906276;29;21312;-81
2023/06/05 04:02:38;;;;;;;8.53;8.13;;;15.50;84.60;;;;;;4906248;29;20504;-81
2023/06/05 04:05:11;;;;;;;8.40;8.13;;;15.40;85.10;;;;;;4907914;29;20474;-82
2023/06/05 04:07:39;;;;;;;9.50;9.00;;;15.40;87.10;;;;;;4907881;29;20474;-81
2023/06/05 04:10:08;;;;;;;8.73;8.43;;;15.40;86.50;;;;;;4907275;29;20461;-81
2023/06/05 04:12:36;;;;;;;8.70;8.40;;;15.40;87.10;;;;;;4908120;29;20458;-81
2023/06/05 04:15:05;;;;;;;10.70;9.20;;;15.50;90.60;;;;;;4908093;29;20489;-81
2023/06/05 04:17:33;;;;;;;9.13;8.73;;;15.40;89.30;;;;;;4905191;29;20449;-82
2023/06/05 04:20:08;;;;;;;8.93;8.63;;;15.40;90.10;;;;;;4907354;29;20584;-82
2023/06/05 04:22:37;;;;;;;8.97;8.47;;;15.40;91.20;;;;;;4906715;29;20528;-81
2023/06/05 04:25:06;;;;;;;8.83;8.50;;;15.60;91.30;;;;;;4907686;29;20481;-81
2023/06/05 04:27:35;;;;;;;8.97;8.37;;;15.60;90.50;;;;;;4908270;29;20520;-81
2023/06/05 04:30:05;;;;;;;9.10;8.80;;;15.60;91.50;;;;;;4907984;29;20459;-81
2023/06/05 04:32:34;;;;;;;9.13;8.63;;;15.60;90.90;;;;;;4908124;29;20524;-81
2023/06/05 04:35:03;;;;;;;9.67;9.20;;;15.60;91.10;;;;;;4907963;29;20503;-82
2023/06/05 04:37:32;;;;;;;10.23;9.67;;;15.60;90.50;;;;;;4905342;29;20498;-81
2023/06/05 04:40:00;;;;;;;9.87;9.30;;;15.70;91.20;;;;;;4907536;29;20502;-82
2023/06/05 04:42:29;;;;;;;10.30;9.73;;;15.80;92.30;;;;;;4908052;29;20469;-81
2023/06/05 04:44:58;;;;;;;9.70;9.20;;;15.70;92.80;;;;;;4906796;29;20489;-80
2023/06/05 04:47:27;;;;;;;10.10;9.60;;;15.70;93.40;;;;;;4905849;29;20453;-81
2023/06/05 04:49:55;;;;;;;10.00;9.40;;;15.80;94.80;;;;;;4907657;29;20450;-80
2023/06/05 04:52:24;;;;;;;10.50;9.80;;;15.80;95.60;;;;;;4906914;29;20471;-80
2023/06/05 04:54:52;;;;;;;11.30;10.70;;;15.80;96.50;;;;;;4903713;29;20487;-81
2023/06/05 04:57:20;;;;;;;10.37;9.97;;;15.80;98.10;;;;;;4907203;29;20499;-82
2023/06/05 04:59:48;;;;;;;10.97;10.47;;;15.80;98.40;;;;;;4906233;29;20526;-81
2023/06/05 05:02:17;;;;;;;11.10;10.60;;;15.80;98.50;;;;;;4905553;29;20549;-81
2023/06/05 05:04:45;;;;;;;10.47;10.07;;;15.80;97.40;;;;;;4907060;29;20496;-81
2023/06/05 05:07:15;;;;;;;11.00;10.50;;;15.80;96.10;;;;;;4904039;29;20464;-81
2023/06/05 05:09:45;;;;;;;10.50;9.80;;;15.80;96.90;;;;;;4904782;29;20817;-81
2023/06/05 05:12:13;;;;;;;9.90;9.60;;;15.80;97.60;;;;;;4907430;29;20882;-81
2023/06/05 05:14:41;;;;;;;10.50;9.90;;;15.90;98.10;;;;;;4905486;29;21331;-81
2023/06/05 05:17:10;;;;;;;11.20;10.70;;;15.90;95.10;;;;;;4904090;29;20907;-82
2023/06/05 05:19:40;;;;;;;10.87;10.47;;;16.00;93.90;;;;;;4906821;29;20470;-81
2023/06/05 05:22:08;;;;;;;10.70;10.20;;;16.00;93.90;;;;;;4907635;29;20458;-81
2023/06/05 05:24:37;;;;;;;10.77;10.30;;;16.10;92.70;;;;;;4906714;29;20475;-81
2023/06/05 05:27:08;;;;;;;12.00;11.30;;;16.10;93.80;;;;;;4906160;29;21000;-81
2023/06/05 05:29:36;;;;;;;12.20;11.07;;;16.20;93.90;;;;;;4910242;29;20472;-81
2023/06/05 05:32:05;;;;;;;11.13;10.63;;;16.10;92.90;;;;;;4924495;29;20567;-81
2023/06/05 05:34:34;;;;;;;10.87;10.27;;;16.10;92.80;;;;;;4910333;29;20853;-81
2023/06/05 05:37:03;;;;;;;10.80;10.10;;;16.20;94.10;;;;;;4910501;29;20547;-81
2023/06/05 05:39:31;;;;;;;11.80;11.00;;;16.30;93.30;;;;;;4910605;29;21036;-81
2023/06/05 05:42:00;;;;;;;11.00;10.30;;;16.30;99.90;;;;;;4909872;29;20481;-81
2023/06/05 05:44:30;;;;;;;11.03;10.50;;;16.40;95.10;;;;;;4911151;29;20615;-81
2023/06/05 05:46:58;;;;;;;11.77;11.03;;;16.40;92.70;;;;;;4909318;29;20881;-80
2023/06/05 05:49:26;;;;;;;11.23;10.73;;;16.40;93.80;;;;;;4910492;29;20456;-81
2023/06/05 05:51:54;;;;;;;12.00;11.20;;;16.50;95.90;;;;;;4909957;29;20460;-80
2023/06/05 05:54:26;;;;;;;14.63;12.17;;;16.60;95.70;;;;;;4908830;29;20488;-80
2023/06/05 05:56:55;;;;;;;11.37;10.90;;;16.60;96.10;;;;;;4908630;29;20524;-81
2023/06/05 05:59:23;;;;;;;10.97;10.47;;;16.70;96.40;;;;;;4908604;29;20463;-80
2023/06/05 06:01:52;;;;;;;11.73;11.10;;;16.80;97.60;;;;;;4909163;29;20495;-80
2023/06/05 06:04:21;;;;;;;11.40;10.70;;;16.90;97.00;;;;;;4908152;29;20491;-80
2023/06/05 06:06:52;;;;;;;11.10;10.47;;;16.90;96.50;;;;;;4922050;29;20464;-80
2023/06/05 06:09:20;;;;;;;11.03;10.20;;;17.00;99.90;;;;;;4903295;29;20457;-81
2023/06/05 06:11:49;;;;;;;10.37;9.97;;;17.10;99.60;;;;;;4910184;29;20518;-81
2023/06/05 06:14:17;;;;;;;10.57;10.17;;;17.10;99.70;;;;;;4910360;29;21130;-82
2023/06/05 06:16:45;;;;;;;11.50;10.83;;;17.20;99.80;;;;;;4908462;29;20602;-80
2023/06/05 06:19:16;;;;;;;17.90;16.20;;;17.30;99.40;;;;;;4909617;29;21034;-81
2023/06/05 06:21:44;;;;;;;15.13;14.10;;;17.40;99.90;;;;;;4909026;29;20488;-80
2023/06/05 06:24:15;;;;;;;11.93;11.33;;;17.40;99.90;;;;;;4910281;29;20501;-81
2023/06/05 06:26:43;;;;;;;10.93;10.53;;;17.50;99.90;;;;;;4909935;29;20454;-82
2023/06/05 06:29:12;;;;;;;11.10;10.60;;;17.60;99.90;;;;;;4908556;29;20490;-81
2023/06/05 06:31:40;;;;;;;11.50;11.00;;;17.60;99.90;;;;;;4907861;29;20460;-81
2023/06/05 06:34:09;;;;;;;11.00;10.50;;;17.50;99.90;;;;;;4909944;29;20488;-82
2023/06/05 06:36:40;;;;;;;11.40;10.80;;;17.50;99.90;;;;;;4909593;29;20469;-81
2023/06/05 06:39:08;;;;;;;11.23;10.63;;;17.50;99.90;;;;;;4906033;29;20934;-82
2023/06/05 06:41:37;;;;;;;11.23;10.83;;;17.70;99.90;;;;;;4908818;29;20493;-81
2023/06/05 06:44:06;;;;;;;11.90;11.17;;;17.70;99.90;;;;;;4910133;29;20489;-81
2023/06/05 06:46:34;;;;;;;11.30;10.90;;;17.90;99.90;;;;;;4909580;29;20467;-81
2023/06/05 06:49:02;;;;;;;11.47;11.03;;;18.00;99.90;;;;;;4908602;29;20449;-80
2023/06/05 06:51:32;;;;;;;11.50;11.10;;;18.10;99.90;;;;;;4909973;29;20564;-81
2023/06/05 06:54:02;;;;;;;11.70;11.20;;;18.10;99.90;;;;;;4909392;29;20500;-81
2023/06/05 06:56:30;;;;;;;11.47;10.97;;;18.20;99.90;;;;;;4909107;29;20953;-81
2023/06/05 06:58:58;;;;;;;11.80;11.07;;;18.30;99.90;;;;;;4908954;29;20462;-81
2023/06/05 07:01:26;;;;;;;11.23;10.83;;;18.40;99.90;;;;;;4909505;29;20485;-81
2023/06/05 07:03:55;;;;;;;11.33;10.77;;;18.40;99.90;;;;;;4908232;29;20479;-80
2023/06/05 07:06:24;;;;;;;12.60;11.80;;;18.40;99.90;;;;;;4909552;29;20462;-81
2023/06/05 07:08:52;;;;;;;12.03;11.37;;;18.50;99.90;;;;;;4907840;29;20466;-81
2023/06/05 07:11:22;;;;;;;11.60;11.20;;;18.50;99.90;;;;;;4908755;29;20458;-80
2023/06/05 07:13:50;;;;;;;12.20;11.53;;;18.50;99.90;;;;;;4908105;29;20486;-81
2023/06/05 07:16:18;;;;;;;11.80;11.23;;;18.60;99.90;;;;;;4909487;29;20460;-81
2023/06/05 07:18:47;;;;;;;11.80;11.40;;;18.70;99.90;;;;;;4908012;29;20463;-82
2023/06/05 07:21:15;;;;;;;11.50;11.03;;;18.70;99.90;;;;;;4908747;29;20488;-81
2023/06/05 07:23:44;;;;;;;12.57;12.00;;;18.80;99.90;;;;;;4906632;29;20474;-80
2023/06/05 07:26:15;;;;;;;11.80;11.20;;;18.80;99.90;;;;;;4908356;29;20489;-81
2023/06/05 07:28:46;;;;;;;11.40;10.90;;;18.90;99.90;;;;;;4907092;29;20473;-81
2023/06/05 07:31:14;;;;;;;11.77;11.27;;;19.00;99.90;;;;;;4907101;29;20462;-81
2023/06/05 07:33:43;;;;;;;10.60;10.20;;;19.00;99.90;;;;;;4907953;29;20932;-81
2023/06/05 07:36:11;;;;;;;11.40;10.90;;;19.00;99.90;;;;;;4909105;29;20500;-83
2023/06/05 07:38:40;;;;;;;11.27;10.80;;;19.10;99.90;;;;;;4907680;29;20593;-81
2023/06/05 07:41:11;;;;;;;12.23;11.43;;;19.20;99.90;;;;;;4907601;29;20524;-81
2023/06/05 07:43:41;;;;;;;11.60;11.20;;;19.30;99.90;;;;;;4907995;29;20541;-81
2023/06/05 07:46:11;;;;;;;12.07;11.47;;;19.30;99.90;;;;;;4906721;29;20987;-80
2023/06/05 07:48:39;;;;;;;13.20;12.33;;;19.40;99.90;;;;;;4907193;29;20438;-82
2023/06/05 07:51:08;;;;;;;12.63;12.13;;;19.50;99.90;;;;;;4905356;29;20501;-81
2023/06/05 07:53:37;;;;;;;12.67;12.17;;;19.50;99.90;;;;;;4907206;29;20570;-81
2023/06/05 07:56:08;;;;;;;12.50;12.10;;;19.50;99.90;;;;;;4908044;29;20469;-81
2023/06/05 07:58:37;;;;;;;13.53;12.83;;;19.70;99.90;;;;;;4907082;29;20525;-81
2023/06/05 08:01:06;;;;;;;13.77;13.17;;;19.70;99.90;;;;;;4907796;29;20493;-81
2023/06/05 08:03:36;;;;;;;13.27;12.57;;;19.80;99.90;;;;;;4908426;29;20457;-80
2023/06/05 08:06:05;;;;;;;13.80;13.10;;;19.80;99.90;;;;;;4908001;29;20504;-80
2023/06/05 08:08:33;;;;;;;13.40;12.90;;;19.90;99.90;;;;;;4907578;29;21305;-81
2023/06/05 08:11:02;;;;;;;14.33;13.50;;;19.90;99.90;;;;;;4908011;29;20479;-81
2023/06/05 08:13:30;;;;;;;13.90;13.17;;;20.00;99.90;;;;;;4908632;29;20462;-80
2023/06/05 08:15:59;;;;;;;13.20;12.70;;;20.10;99.90;;;;;;4908245;29;20461;-81
2023/06/05 08:18:27;;;;;;;13.10;12.50;;;20.20;99.90;;;;;;4908556;29;20596;-83
2023/06/05 08:20:57;;;;;;;14.00;13.40;;;20.20;99.90;;;;;;4908062;29;20889;-81
2023/06/05 08:23:26;;;;;;;13.80;13.10;;;20.20;99.90;;;;;;4908218;29;21223;-81
2023/06/05 08:25:54;;;;;;;13.50;12.90;;;20.30;99.90;;;;;;4907295;29;21058;-81
2023/06/05 08:28:23;;;;;;;14.53;13.83;;;20.30;99.90;;;;;;4906681;29;20467;-81
2023/06/05 08:30:52;;;;;;;14.60;13.90;;;20.40;99.90;;;;;;4906679;29;20476;-80
2023/06/05 08:33:22;;;;;;;14.70;13.83;;;20.50;99.90;;;;;;4907133;29;20450;-81
2023/06/05 08:35:50;;;;;;;13.97;13.27;;;20.50;99.90;;;;;;4907273;29;21047;-82
2023/06/05 08:38:20;;;;;;;14.37;13.87;;;20.50;99.90;;;;;;4907201;29;21010;-81
2023/06/05 08:40:57;;;;;;;15.80;15.00;;;20.60;99.90;;;;;;4905913;29;20470;-81
2023/06/05 08:43:25;;;;;;;15.07;14.30;;;20.70;99.90;;;;;;4908020;29;20571;-81
2023/06/05 08:45:55;;;;;;;15.57;14.97;;;20.70;99.90;;;;;;4908523;29;20555;-80
2023/06/05 08:48:26;;;;;;;16.37;15.33;;;20.80;99.90;;;;;;4907882;29;20461;-81
2023/06/05 08:50:55;;;;;;;17.13;16.03;;;20.80;99.90;;;;;;4906799;29;20464;-81
2023/06/05 08:53:28;;;;;;;17.27;16.40;;;20.90;99.90;;;;;;4908005;29;20489;-81
2023/06/05 08:55:56;;;;;;;15.80;15.20;;;21.00;99.90;;;;;;4907292;29;20480;-81
2023/06/05 08:58:25;;;;;;;17.83;16.83;;;21.00;99.90;;;;;;4907137;29;20466;-82
2023/06/05 09:00:54;;;;;;;16.00;15.33;;;21.10;99.90;;;;;;4906297;29;20490;-80
2023/06/05 09:03:23;;;;;;;17.70;16.80;;;21.20;99.90;;;;;;4908723;29;20993;-81
2023/06/05 09:05:53;;;;;;;17.40;16.60;;;21.20;99.90;;;;;;4909603;29;20468;-82
2023/06/05 09:08:32;;;;;;;17.50;16.70;;;21.30;99.90;;;;;;4909966;29;20507;-81
2023/06/05 09:11:26;;;;;;;18.10;17.20;;;21.40;99.90;;;;;;4910251;29;20459;-81
2023/06/05 09:13:56;;;;;;;16.90;16.20;;;21.40;99.90;;;;;;4910605;29;21005;-81
2023/06/05 09:16:37;;;;;;;17.97;17.17;;;21.50;99.90;;;;;;4912069;29;20556;-81
2023/06/05 09:19:07;;;;;;;17.50;16.80;;;21.50;99.90;;;;;;4910813;29;20841;-80
2023/06/05 09:21:36;;;;;;;16.83;16.03;;;21.50;99.90;;;;;;4911524;29;20457;-81
2023/06/05 09:24:16;;;;;;;17.80;17.00;;;21.50;99.90;;;;;;4910234;29;21022;-82
2023/06/05 09:26:50;;;;;;;18.50;17.60;;;21.60;99.90;;;;;;4909858;29;20460;-81
2023/06/05 09:29:26;;;;;;;17.87;16.97;;;21.70;99.90;;;;;;4911063;29;20470;-81
2023/06/05 09:31:57;;;;;;;17.67;16.60;;;21.70;99.90;;;;;;4910764;29;20475;-81
2023/06/05 09:34:27;;;;;;;17.60;16.70;;;21.80;99.90;;;;;;4909775;29;20904;-81
2023/06/05 09:36:57;;;;;;;17.47;16.57;;;21.80;99.90;;;;;;4910489;29;21183;-80
2023/06/05 09:39:29;;;;;;;17.20;16.40;;;21.80;99.90;;;;;;4911309;29;20461;-82
2023/06/05 09:41:58;;;;;;;17.33;16.50;;;21.90;99.90;;;;;;4911629;29;20460;-80
2023/06/05 09:44:27;;;;;;;20.27;18.23;;;21.90;99.90;;;;;;4912049;29;20490;-81
2023/06/05 09:46:58;;;;;;;18.60;17.40;;;22.00;99.90;;;;;;4911518;29;20595;-81
2023/06/05 09:49:28;;;;;;;18.07;16.83;;;22.20;99.90;;;;;;4909914;29;20465;-81
2023/06/05 09:51:58;;;;;;;17.70;16.77;;;22.30;99.90;;;;;;4909946;29;20536;-82
2023/06/05 09:54:29;;;;;;;18.57;17.20;;;22.30;99.90;;;;;;4909902;29;21014;-81
2023/06/05 09:57:00;;;;;;;17.57;16.70;;;22.30;99.90;;;;;;4909565;29;20574;-82
2023/06/05 09:59:31;;;;;;;17.33;16.63;;;22.40;99.90;;;;;;4909711;29;20467;-82
2023/06/05 10:02:04;;;;;;;17.03;16.30;;;22.40;99.90;;;;;;4909688;29;20546;-81
2023/06/05 10:04:41;;;;;;;16.97;16.30;;;22.30;99.90;;;;;;4910761;29;21551;-80
2023/06/05 10:07:10;;;;;;;16.27;15.50;;;22.30;99.90;;;;;;4909972;29;20461;-82
2023/06/05 10:09:41;;;;;;;16.80;16.10;;;22.40;99.90;;;;;;4910953;29;20531;-82
2023/06/05 10:12:10;;;;;;;17.17;16.27;;;22.40;99.90;;;;;;4910876;29;21038;-80
2023/06/05 10:14:42;;;;;;;16.23;15.43;;;22.40;99.90;;;;;;4909875;29;20536;-82
2023/06/05 10:17:12;;;;;;;17.20;16.40;;;22.40;99.90;;;;;;4910730;29;20504;-81
2023/06/05 10:19:43;;;;;;;17.63;16.73;;;22.40;99.90;;;;;;4911301;29;20457;-80
2023/06/05 10:22:12;;;;;;;16.93;16.13;;;22.40;99.90;;;;;;4910518;29;20508;-81
2023/06/05 10:24:46;;;;;;;16.97;16.17;;;22.60;99.90;;;;;;4910024;29;20489;-81
2023/06/05 10:27:51;;;;;;;16.97;16.20;;;22.70;99.90;;;;;;4910261;29;20472;-81
2023/06/05 10:31:02;;;;;;;17.07;16.37;;;22.70;99.90;;;;;;4909871;29;20462;-82
2023/06/05 10:33:46;;;;;;;17.30;16.50;;;22.80;99.90;;;;;;4910009;29;20457;-81
2023/06/05 10:36:26;;;;;;;17.27;16.40;;;22.80;99.90;;;;;;4909257;29;20476;-82
2023/06/05 10:38:54;;;;;;;18.07;17.13;;;22.90;99.90;;;;;;4909873;29;21025;-80
2023/06/05 10:41:25;;;;;;;16.90;16.20;;;22.90;99.90;;;;;;4909569;29;20465;-81
2023/06/05 10:43:55;;;;;;;17.00;16.30;;;22.90;99.90;;;;;;4909793;29;20497;-80
2023/06/05 10:46:31;;;;;;;17.07;16.47;;;22.80;99.90;;;;;;4907765;29;20474;-81
2023/06/05 10:49:15;;;;;;;17.37;16.47;;;22.90;99.90;;;;;;4909899;29;20536;-82
2023/06/05 10:51:44;;;;;;;16.57;15.97;;;23.00;99.90;;;;;;4908246;29;20458;-81
2023/06/05 10:54:16;;;;;;;16.33;15.67;;;22.90;99.90;;;;;;4910112;29;20544;-81
2023/06/05 10:57:00;;;;;;;16.30;15.60;;;22.90;99.90;;;;;;4908180;29;20552;-82
2023/06/05 10:59:29;;;;;;;16.63;15.67;;;22.90;99.90;;;;;;4907380;29;20468;-81
2023/06/05 11:02:27;;;;;;;16.60;15.87;;;23.10;99.90;;;;;;4909637;29;21028;-82
2023/06/05 11:05:12;;;;;;;16.27;15.60;;;23.20;99.90;;;;;;4908311;29;20548;-82
2023/06/05 11:07:44;;;;;;;17.10;16.23;;;23.20;99.90;;;;;;4908913;29;20553;-81
2023/06/05 11:10:20;;;;;;;16.30;15.50;;;23.30;99.90;;;;;;4907251;29;20564;-82
2023/06/05 11:13:00;;;;;;;16.50;15.80;;;23.30;99.90;;;;;;4908537;29;20916;-81
2023/06/05 11:15:37;;;;;;;15.80;15.10;;;23.50;99.90;;;;;;4908681;29;20552;-82
2023/06/05 11:18:30;;;;;;;15.90;15.10;;;23.50;99.90;;;;;;4908812;29;20458;-82
2023/06/05 11:20:59;;;;;;;16.20;15.30;;;23.50;99.90;;;;;;4908943;29;20471;-80
2023/06/05 11:23:29;;;;;;;15.00;14.20;;;23.60;99.90;;;;;;4908627;29;20573;-81
2023/06/05 11:25:59;;;;;;;15.77;15.07;;;23.60;99.90;;;;;;4909034;29;20609;-81
2023/06/05 11:28:45;;;;;;;14.90;14.30;;;23.60;99.90;;;;;;4907372;29;20450;-82
2023/06/05 11:31:13;;;;;;;14.87;14.20;;;23.60;99.90;;;;;;4909195;29;20457;-81
2023/06/05 11:33:42;;;;;;;15.47;14.77;;;23.50;99.90;;;;;;4908731;29;21016;-81
2023/06/05 11:36:11;;;;;;;15.50;14.87;;;23.50;99.90;;;;;;4909674;29;20540;-81
2023/06/05 11:38:40;;;;;;;17.10;16.20;;;23.40;99.90;;;;;;4906975;29;20469;-81
2023/06/05 11:41:09;;;;;;;15.80;15.10;;;23.40;99.90;;;;;;4908309;29;20490;-82
2023/06/05 11:43:48;;;;;;;15.43;14.73;;;23.40;99.90;;;;;;4908669;29;21177;-82
2023/06/05 11:46:16;;;;;;;15.43;14.93;;;23.50;99.90;;;;;;4907897;29;20476;-81
2023/06/05 11:48:45;;;;;;;15.03;14.43;;;23.60;99.90;;;;;;4907432;29;20466;-82
2023/06/05 11:51:14;;;;;;;15.27;14.47;;;23.70;99.90;;;;;;4908235;29;20469;-82
2023/06/05 11:53:48;;;;;;;15.50;14.80;;;23.60;99.90;;;;;;4908902;29;20469;-82
2023/06/05 11:56:17;;;;;;;15.10;14.50;;;23.50;99.90;;;;;;4907870;29;20848;-81
2023/06/05 11:58:47;;;;;;;15.00;14.50;;;23.50;99.90;;;;;;4908035;29;20449;-81
2023/06/05 12:01:21;;;;;;;14.60;14.00;;;23.40;99.90;;;;;;4905194;29;20860;-82
2023/06/05 12:04:02;;;;;;;14.70;14.10;;;23.50;99.90;;;;;;4907815;29;20489;-81
2023/06/05 12:06:30;;;;;;;15.23;14.50;;;23.50;99.90;;;;;;4909288;29;20485;-81
2023/06/05 12:09:09;;;;;;;14.80;14.20;;;23.50;99.90;;;;;;4907126;29;20462;-82
2023/06/05 12:11:38;;;;;;;15.20;14.60;;;23.60;99.90;;;;;;4909093;29;21038;-82
2023/06/05 12:14:07;;;;;;;15.33;14.40;;;23.60;99.90;;;;;;4908847;29;20480;-82
2023/06/05 12:16:36;;;;;;;15.03;14.43;;;23.70;99.90;;;;;;4907618;29;20457;-81
2023/06/05 12:19:13;;;;;;;14.90;14.20;;;23.80;99.90;;;;;;4907615;29;20472;-81
2023/06/05 12:21:45;;;;;;;15.03;14.43;;;23.90;99.90;;;;;;4908179;29;20461;-82
2023/06/05 12:24:13;;;;;;;14.90;14.30;;;23.80;99.90;;;;;;4908153;29;20489;-82
2023/06/05 12:26:53;;;;;;;15.07;13.97;;;23.90;99.90;;;;;;4907189;29;20852;-83
2023/06/05 12:29:24;;;;;;;13.40;12.90;;;23.90;99.90;;;;;;4907502;29;20454;-82
2023/06/05 12:31:53;;;;;;;14.57;13.80;;;24.00;99.90;;;;;;4907576;29;20505;-82
2023/06/05 12:34:41;;;;;;;14.50;13.80;;;24.00;99.90;;;;;;4906319;29;20485;-82
2023/06/05 12:37:29;;;;;;;13.87;13.30;;;24.20;99.90;;;;;;4906564;29;20489;-82
2023/06/05 12:39:58;;;;;;;14.03;13.23;;;24.20;99.90;;;;;;4906359;29;20522;-82
2023/06/05 12:42:27;;;;;;;13.40;12.90;;;24.10;99.90;;;;;;4906386;29;20472;-81
2023/06/05 12:44:56;;;;;;;13.97;13.40;;;24.20;99.90;;;;;;4907355;29;20493;-84
2023/06/05 12:47:24;;;;;;;13.50;12.80;;;24.20;99.90;;;;;;4907221;29;20502;-82
2023/06/05 12:49:53;;;;;;;13.60;13.07;;;24.20;99.90;;;;;;4907767;29;21211;-81
2023/06/05 12:52:25;;;;;;;13.43;12.63;;;24.30;99.90;;;;;;4908438;29;20517;-82